createdAt,value
2022-08-19T00:01:55.636Z,7.78
2022-08-19T00:04:26.924Z,8.60
2022-08-19T00:06:54.376Z,7.72
2022-08-19T00:09:22.786Z,7.10
2022-08-19T00:11:50.365Z,7.53
2022-08-19T00:14:19.389Z,6.53
2022-08-19T00:16:48.714Z,7.45
2022-08-19T00:19:16.998Z,7.95
2022-08-19T00:21:44.379Z,8.38
2022-08-19T00:24:13.300Z,9.20
2022-08-19T00:26:40.713Z,9.77
2022-08-19T00:29:10.238Z,9.85
2022-08-19T00:31:37.408Z,8.00
2022-08-19T00:34:05.212Z,8.07
2022-08-19T00:36:33.610Z,7.50
2022-08-19T00:39:01.461Z,8.20
2022-08-19T00:41:28.444Z,8.40
2022-08-19T00:44:13.747Z,9.35
2022-08-19T00:46:43.833Z,8.25
2022-08-19T00:49:15.899Z,7.60
2022-08-19T00:51:45.865Z,7.65
2022-08-19T00:54:13.424Z,7.82
2022-08-19T00:56:41.584Z,7.57
2022-08-19T00:59:10.108Z,7.60
2022-08-19T01:01:42.802Z,8.02
2022-08-19T01:04:09.859Z,7.60
2022-08-19T01:06:38.455Z,7.32
2022-08-19T01:09:06.462Z,8.20
2022-08-19T01:11:38.595Z,8.27
2022-08-19T01:14:06.717Z,8.38
2022-08-19T01:16:34.779Z,8.60
2022-08-19T01:19:02.614Z,8.90
2022-08-19T01:21:43.215Z,8.20
2022-08-19T01:24:10.131Z,9.15
2022-08-19T01:26:43.950Z,9.23
2022-08-19T01:29:11.611Z,8.93
2022-08-19T01:31:40.142Z,7.57
2022-08-19T01:34:08.156Z,9.25
2022-08-19T01:36:48.386Z,8.50
2022-08-19T01:39:20.985Z,8.30
2022-08-19T01:41:49.091Z,8.43
2022-08-19T01:44:18.518Z,8.98
2022-08-19T01:46:48.200Z,8.98
2022-08-19T01:49:15.670Z,10.73
2022-08-19T01:51:42.567Z,9.05
2022-08-19T01:54:11.524Z,8.80
2022-08-19T01:56:39.642Z,10.13
2022-08-19T01:59:13.156Z,9.27
2022-08-19T02:01:40.143Z,10.55
2022-08-19T02:04:07.640Z,10.35
2022-08-19T02:06:35.087Z,8.93
2022-08-19T02:09:03.432Z,9.13
2022-08-19T02:11:35.117Z,10.15
2022-08-19T02:14:04.350Z,9.38
2022-08-19T02:16:31.740Z,8.85
2022-08-19T02:19:01.569Z,9.45
2022-08-19T02:21:29.258Z,9.18
2022-08-19T02:23:56.614Z,10.75
2022-08-19T02:26:24.533Z,9.13
2022-08-19T02:28:51.647Z,9.15
2022-08-19T02:31:21.428Z,10.02
2022-08-19T02:33:48.624Z,9.52
2022-08-19T02:36:17.077Z,9.95
2022-08-19T02:38:55.171Z,9.65
2022-08-19T02:41:30.588Z,9.57
2022-08-19T02:46:48.363Z,9.93
2022-08-19T02:49:17.528Z,9.63
2022-08-19T02:51:46.822Z,9.05
2022-08-19T02:54:14.653Z,10.05
2022-08-19T02:56:44.076Z,9.80
2022-08-19T02:59:12.920Z,9.70
2022-08-19T03:01:42.129Z,10.15
2022-08-19T03:04:11.857Z,10.95
2022-08-19T03:06:40.460Z,10.10
2022-08-19T03:09:07.739Z,8.68
2022-08-19T03:11:34.742Z,10.02
2022-08-19T03:14:02.908Z,9.57
2022-08-19T03:16:33.769Z,9.00
2022-08-19T03:19:02.027Z,10.57
2022-08-19T03:21:34.729Z,9.95
2022-08-19T03:24:05.745Z,9.85
2022-08-19T03:26:32.803Z,10.88
2022-08-19T03:29:05.613Z,9.73
2022-08-19T03:31:44.794Z,11.35
2022-08-19T03:34:22.491Z,11.60
2022-08-19T03:36:49.497Z,10.52
2022-08-19T03:39:17.011Z,11.25
2022-08-19T03:41:48.199Z,10.73
2022-08-19T03:44:20.681Z,9.80
2022-08-19T03:46:50.304Z,10.00
2022-08-19T03:49:18.089Z,12.40
2022-08-19T03:51:46.670Z,12.13
2022-08-19T03:54:15.953Z,11.35
2022-08-19T03:56:44.380Z,10.90
2022-08-19T03:59:14.542Z,10.23
2022-08-19T04:01:42.031Z,11.98
2022-08-19T04:04:09.947Z,10.73
2022-08-19T04:06:39.823Z,11.95
2022-08-19T04:09:10.113Z,11.40
2022-08-19T04:11:46.500Z,11.18
2022-08-19T04:14:17.589Z,11.13
2022-08-19T04:16:45.582Z,11.95
2022-08-19T04:19:13.434Z,11.07
2022-08-19T04:21:40.386Z,11.43
2022-08-19T04:24:08.134Z,11.68
2022-08-19T04:26:37.675Z,11.05
2022-08-19T04:29:26.424Z,11.15
2022-08-19T04:31:55.032Z,11.07
2022-08-19T04:34:24.356Z,11.20
2022-08-19T04:36:52.944Z,12.70
2022-08-19T04:39:23.045Z,10.55
2022-08-19T04:42:08.643Z,11.98
2022-08-19T04:44:44.983Z,10.93
2022-08-19T04:47:13.297Z,10.98
2022-08-19T04:49:40.193Z,11.98
2022-08-19T04:52:07.081Z,10.73
2022-08-19T04:54:38.537Z,13.40
2022-08-19T04:57:11.151Z,11.68
2022-08-19T04:59:39.453Z,15.13
2022-08-19T05:02:07.746Z,19.00
2022-08-19T05:04:35.006Z,12.55
2022-08-19T05:07:02.492Z,12.00
2022-08-19T05:09:52.515Z,12.10
2022-08-19T05:12:18.770Z,12.15
2022-08-19T05:14:48.298Z,11.13
2022-08-19T05:17:36.011Z,12.60
2022-08-19T05:20:21.912Z,12.38
2022-08-19T05:22:49.241Z,13.77
2022-08-19T05:25:20.688Z,12.30
2022-08-19T05:27:48.304Z,12.38
2022-08-19T05:30:16.619Z,12.02
2022-08-19T05:32:44.207Z,11.90
2022-08-19T05:35:12.781Z,12.15
2022-08-19T05:37:41.718Z,12.43
2022-08-19T05:40:10.057Z,10.88
2022-08-19T05:42:37.126Z,11.13
2022-08-19T05:45:05.449Z,10.77
2022-08-19T05:47:33.047Z,11.75
2022-08-19T05:50:00.165Z,11.73
2022-08-19T05:52:28.269Z,13.23
2022-08-19T05:54:56.902Z,11.88
2022-08-19T05:57:24.853Z,12.88
2022-08-19T05:59:57.827Z,14.30
2022-08-19T06:02:29.292Z,14.00
2022-08-19T06:04:56.218Z,14.38
2022-08-19T06:07:23.361Z,13.98
2022-08-19T06:09:59.023Z,12.38
2022-08-19T06:12:32.455Z,13.93
2022-08-19T06:15:00.767Z,14.65
2022-08-19T06:17:32.269Z,13.25
2022-08-19T06:20:00.185Z,14.50
2022-08-19T06:22:27.756Z,14.63
2022-08-19T06:24:55.275Z,13.93
2022-08-19T06:27:22.372Z,14.45
2022-08-19T06:29:49.296Z,18.38
2022-08-19T06:32:19.192Z,14.25
2022-08-19T06:34:46.589Z,15.85
2022-08-19T06:37:13.591Z,13.23
2022-08-19T06:39:42.473Z,14.43
2022-08-19T06:42:12.858Z,17.50
2022-08-19T06:44:42.895Z,15.43
2022-08-19T06:47:14.789Z,15.48
2022-08-19T06:49:50.278Z,16.20
2022-08-19T06:52:17.651Z,13.20
2022-08-19T06:54:55.892Z,16.52
2022-08-19T06:57:25.397Z,18.02
2022-08-19T06:59:53.247Z,15.43
2022-08-19T07:02:21.772Z,13.50
2022-08-19T07:04:52.576Z,13.40
2022-08-19T07:07:21.891Z,15.25
2022-08-19T07:09:57.127Z,14.13
2022-08-19T07:12:35.377Z,14.82
2022-08-19T07:15:06.534Z,14.00
2022-08-19T07:17:34.551Z,14.60
2022-08-19T07:20:05.382Z,13.02
2022-08-19T07:22:34.998Z,13.23
2022-08-19T07:25:04.689Z,12.82
2022-08-19T07:27:33.680Z,14.00
2022-08-19T07:30:01.177Z,14.93
2022-08-19T07:32:28.259Z,14.85
2022-08-19T07:34:56.769Z,14.82
2022-08-19T07:37:32.530Z,14.30
2022-08-19T07:40:00.132Z,14.02
2022-08-19T07:42:27.756Z,13.82
2022-08-19T07:44:54.707Z,14.65
2022-08-19T07:47:50.287Z,16.42
2022-08-19T07:50:12.638Z,17.50
2022-08-19T07:52:40.695Z,17.67
2022-08-19T07:55:40.139Z,18.90
2022-08-19T07:57:57.072Z,16.60
2022-08-19T08:00:24.663Z,17.95
2022-08-19T08:02:53.026Z,15.90
2022-08-19T08:05:43.923Z,15.32
2022-08-19T08:08:30.932Z,15.20
2022-08-19T08:10:59.531Z,15.15
2022-08-19T08:13:27.444Z,15.60
2022-08-19T08:15:56.106Z,17.42
2022-08-19T08:18:28.073Z,16.35
2022-08-19T08:20:57.876Z,14.53
2022-08-19T08:23:29.668Z,13.68
2022-08-19T08:25:59.068Z,14.63
2022-08-19T08:28:29.689Z,15.77
2022-08-19T08:30:58.367Z,13.27
2022-08-19T08:33:33.681Z,13.98
2022-08-19T08:36:09.339Z,14.18
2022-08-19T08:38:41.200Z,12.98
2022-08-19T08:41:36.513Z,13.85
2022-08-19T08:44:05.423Z,12.27
2022-08-19T08:46:40.988Z,13.13
2022-08-19T08:49:38.450Z,14.55
2022-08-19T08:52:19.919Z,13.90
2022-08-19T08:54:55.427Z,14.25
2022-08-19T08:57:25.466Z,13.73
2022-08-19T08:59:54.818Z,13.25
2022-08-19T09:02:21.809Z,13.45
2022-08-19T09:04:49.463Z,12.25
2022-08-19T09:07:50.844Z,14.88
2022-08-19T09:10:44.703Z,11.85
2022-08-19T09:13:26.778Z,12.63
2022-08-19T09:16:02.101Z,12.20
2022-08-19T09:18:47.010Z,13.18
2022-08-19T09:21:15.356Z,11.90
2022-08-19T09:23:43.604Z,12.48
2022-08-19T09:26:16.839Z,11.82
2022-08-19T09:28:48.703Z,14.35
2022-08-19T09:31:20.183Z,17.58
2022-08-19T09:33:48.253Z,14.25
2022-08-19T09:36:24.357Z,14.27
2022-08-19T09:39:01.593Z,17.38
2022-08-19T09:41:29.177Z,13.27
2022-08-19T09:43:58.515Z,13.82
2022-08-19T09:46:28.808Z,12.00
2022-08-19T09:49:06.074Z,10.63
2022-08-19T09:51:33.788Z,13.80
2022-08-19T09:54:04.556Z,13.63
2022-08-19T09:56:32.796Z,14.25
2022-08-19T09:59:02.184Z,12.50
2022-08-19T10:01:31.287Z,12.45
2022-08-19T10:03:59.954Z,14.93
2022-08-19T10:06:45.784Z,12.20
2022-08-19T10:09:15.516Z,11.45
2022-08-19T10:11:52.263Z,9.73
2022-08-19T10:14:23.599Z,15.13
2022-08-19T10:16:52.750Z,10.20
2022-08-19T10:19:25.762Z,10.68
2022-08-19T10:21:54.347Z,10.85
2022-08-19T10:24:25.331Z,10.93
2022-08-19T10:26:55.867Z,10.57
2022-08-19T10:29:31.891Z,10.27
2022-08-19T10:32:02.708Z,10.27
2022-08-19T10:34:31.723Z,10.13
2022-08-19T10:37:01.010Z,10.98
2022-08-19T10:39:31.313Z,13.00
2022-08-19T10:41:58.667Z,11.63
2022-08-19T10:44:32.399Z,10.50
2022-08-19T10:47:00.549Z,11.38
2022-08-19T10:49:28.177Z,10.85
2022-08-19T10:52:20.199Z,10.10
2022-08-19T10:55:08.184Z,12.10
2022-08-19T10:57:59.170Z,12.07
2022-08-19T11:00:24.309Z,11.20
2022-08-19T11:02:51.828Z,12.02
2022-08-19T11:05:20.036Z,12.82
2022-08-19T11:07:47.040Z,13.00
2022-08-19T11:10:20.849Z,13.00
2022-08-19T11:15:15.269Z,10.85
2022-08-19T11:17:42.570Z,11.88
2022-08-19T11:20:11.614Z,11.13
2022-08-19T11:22:41.521Z,11.55
2022-08-19T11:25:10.627Z,16.55
2022-08-19T11:27:43.662Z,9.65
2022-08-19T11:30:13.108Z,10.75
2022-08-19T11:32:44.473Z,10.68
2022-08-19T11:35:14.629Z,10.38
2022-08-19T11:37:41.757Z,8.98
2022-08-19T11:40:09.483Z,9.85
2022-08-19T11:42:55.222Z,11.10
2022-08-19T11:45:22.654Z,8.50
2022-08-19T11:47:49.606Z,9.20
2022-08-19T11:50:17.694Z,6.57
2022-08-19T11:52:46.085Z,7.15
2022-08-19T11:55:14.591Z,7.38
2022-08-19T11:57:42.263Z,7.15
2022-08-19T12:00:11.692Z,5.97
2022-08-19T12:02:38.584Z,7.00
2022-08-19T12:05:11.511Z,6.28
2022-08-19T12:07:39.476Z,3.90
2022-08-19T12:10:06.775Z,5.22
2022-08-19T12:12:35.420Z,4.78
2022-08-19T12:15:02.919Z,5.50
2022-08-19T12:17:31.837Z,4.63
2022-08-19T12:19:58.865Z,4.97
2022-08-19T12:22:25.806Z,4.28
2022-08-19T12:24:54.263Z,5.35
2022-08-19T12:27:34.689Z,4.43
2022-08-19T12:30:10.858Z,4.03
2022-08-19T12:32:39.077Z,4.10
2022-08-19T12:35:09.106Z,3.72
2022-08-19T12:37:36.005Z,4.25
2022-08-19T12:40:04.060Z,3.90
2022-08-19T12:42:31.577Z,4.15
2022-08-19T12:44:58.646Z,4.75
2022-08-19T12:47:27.569Z,4.93
2022-08-19T12:49:55.988Z,3.85
2022-08-19T12:52:28.411Z,3.42
2022-08-19T12:54:57.254Z,4.90
2022-08-19T12:57:32.897Z,4.65
2022-08-19T13:00:10.146Z,6.93
2022-08-19T13:02:38.491Z,3.90
2022-08-19T13:05:09.359Z,2.95
2022-08-19T13:07:38.299Z,4.13
2022-08-19T13:10:10.051Z,4.15
2022-08-19T13:12:37.025Z,4.60
2022-08-19T13:15:10.644Z,4.20
2022-08-19T13:17:39.282Z,3.45
2022-08-19T13:20:09.074Z,3.20
2022-08-19T13:22:39.418Z,3.88
2022-08-19T13:25:07.938Z,3.45
2022-08-19T13:27:35.212Z,4.03
2022-08-19T13:30:21.762Z,5.88
2022-08-19T13:33:07.235Z,3.85
2022-08-19T13:35:34.106Z,3.03
2022-08-19T13:38:05.947Z,2.97
2022-08-19T13:40:39.891Z,2.92
2022-08-19T13:43:22.302Z,3.95
2022-08-19T13:45:56.425Z,4.20
2022-08-19T13:48:24.627Z,4.22
2022-08-19T13:50:51.656Z,4.63
2022-08-19T13:53:18.789Z,2.50
2022-08-19T13:55:45.824Z,2.95
2022-08-19T13:58:13.475Z,4.20
2022-08-19T14:00:43.443Z,2.75
2022-08-19T14:03:10.541Z,3.15
2022-08-19T14:05:37.597Z,4.38
2022-08-19T14:08:04.756Z,2.63
2022-08-19T14:10:32.627Z,3.70
2022-08-19T14:13:02.984Z,1.40
2022-08-19T14:15:30.712Z,3.17
2022-08-19T14:17:57.784Z,1.75
2022-08-19T14:20:25.929Z,5.28
2022-08-19T14:22:54.637Z,1.65
2022-08-19T14:25:25.344Z,2.05
2022-08-19T14:27:52.564Z,1.33
2022-08-19T14:30:24.017Z,1.00
2022-08-19T14:32:51.025Z,4.22
2022-08-19T14:35:18.012Z,3.03
2022-08-19T14:37:46.374Z,1.55
2022-08-19T14:40:21.643Z,2.50
2022-08-19T14:42:49.513Z,1.77
2022-08-19T14:45:16.425Z,2.55
2022-08-19T14:47:43.329Z,1.05
2022-08-19T14:50:17.785Z,2.15
2022-08-19T14:52:48.875Z,4.00
2022-08-19T14:55:19.136Z,1.52
2022-08-19T14:57:46.483Z,1.67
2022-08-19T15:00:14.685Z,1.15
2022-08-19T15:02:45.087Z,1.15
2022-08-19T15:05:13.680Z,2.30
2022-08-19T15:07:41.971Z,1.42
2022-08-19T15:10:10.714Z,2.38
2022-08-19T15:12:41.249Z,2.22
2022-08-19T15:15:18.314Z,1.55
2022-08-19T15:17:47.466Z,1.27
2022-08-19T15:20:16.835Z,1.98
2022-08-19T15:22:43.693Z,1.30
2022-08-19T15:25:12.460Z,3.20
2022-08-19T15:27:40.742Z,2.05
2022-08-19T15:30:11.691Z,2.38
2022-08-19T15:32:39.096Z,2.08
2022-08-19T15:35:07.475Z,1.38
2022-08-19T15:37:37.581Z,0.70
2022-08-19T15:40:09.594Z,3.08
2022-08-19T15:42:38.618Z,2.10
2022-08-19T15:45:06.589Z,1.00
2022-08-19T15:47:35.072Z,1.60
2022-08-19T15:50:10.791Z,1.70
2022-08-19T15:52:49.378Z,1.33
2022-08-19T15:55:33.601Z,0.90
2022-08-19T15:58:28.974Z,2.08
2022-08-19T16:01:20.807Z,1.02
2022-08-19T16:04:14.520Z,0.88
2022-08-19T16:06:48.468Z,5.15
2022-08-19T16:09:17.095Z,1.30
2022-08-19T16:11:45.865Z,1.60
2022-08-19T16:14:14.145Z,2.42
2022-08-19T16:16:41.035Z,2.33
2022-08-19T16:19:10.531Z,1.10
2022-08-19T16:21:41.579Z,0.60
2022-08-19T16:24:10.617Z,1.38
2022-08-19T16:26:37.732Z,1.35
2022-08-19T16:29:09.037Z,3.42
2022-08-19T16:31:40.079Z,1.55
2022-08-19T16:34:07.020Z,2.13
2022-08-19T16:36:34.027Z,0.70
2022-08-19T16:39:01.784Z,1.05
2022-08-19T16:41:29.549Z,0.70
2022-08-19T16:43:56.478Z,1.35
2022-08-19T16:46:27.109Z,0.93
2022-08-19T16:48:54.675Z,1.92
2022-08-19T16:51:22.929Z,0.82
2022-08-19T16:53:52.678Z,1.20
2022-08-19T16:56:20.400Z,1.00
2022-08-19T16:58:48.129Z,1.85
2022-08-19T17:01:15.082Z,2.30
2022-08-19T17:03:42.465Z,2.90
2022-08-19T17:06:18.513Z,1.40
2022-08-19T17:08:49.942Z,2.28
2022-08-19T17:11:19.375Z,1.50
2022-08-19T17:13:47.897Z,2.70
2022-08-19T17:16:25.158Z,1.50
2022-08-19T17:18:53.045Z,2.78
2022-08-19T17:21:21.472Z,2.65
2022-08-19T17:23:48.890Z,2.28
2022-08-19T17:26:18.744Z,1.17
2022-08-19T17:28:49.739Z,2.88
2022-08-19T17:31:19.153Z,2.47
2022-08-19T17:33:48.245Z,2.15
2022-08-19T17:36:17.390Z,3.10
2022-08-19T17:38:44.657Z,0.75
2022-08-19T17:41:11.677Z,1.40
2022-08-19T17:43:43.146Z,0.73
2022-08-19T17:46:18.744Z,0.90
2022-08-19T17:48:52.233Z,0.65
2022-08-19T17:51:22.004Z,2.03
2022-08-19T17:53:53.498Z,1.10
2022-08-19T17:56:21.873Z,1.73
2022-08-19T17:58:53.807Z,1.48
2022-08-19T18:01:30.080Z,0.65
2022-08-19T18:04:11.467Z,1.52
2022-08-19T18:06:39.049Z,1.75
2022-08-19T18:09:06.723Z,1.83
2022-08-19T18:11:34.862Z,1.77
2022-08-19T18:14:01.829Z,2.00
2022-08-19T18:16:32.589Z,1.15
2022-08-19T18:18:59.709Z,1.75
2022-08-19T18:21:31.725Z,1.77
2022-08-19T18:24:01.801Z,3.67
2022-08-19T18:26:30.294Z,1.48
2022-08-19T18:28:57.357Z,1.50
2022-08-19T18:31:24.637Z,2.20
2022-08-19T18:33:54.366Z,2.17
2022-08-19T18:36:50.009Z,2.42
2022-08-19T18:39:26.792Z,2.00
2022-08-19T18:42:14.782Z,4.63
2022-08-19T18:45:00.356Z,1.88
2022-08-19T18:47:46.126Z,2.53
2022-08-19T18:50:13.878Z,1.42
2022-08-19T18:52:41.030Z,2.35
2022-08-19T18:55:08.654Z,2.30
2022-08-19T18:57:35.550Z,1.60
2022-08-19T19:00:04.532Z,4.40
2022-08-19T19:02:38.843Z,3.42
2022-08-19T19:05:07.651Z,4.40
2022-08-19T19:07:35.389Z,3.65
2022-08-19T19:10:02.646Z,2.65
2022-08-19T19:12:29.956Z,2.35
2022-08-19T19:14:58.629Z,5.03
2022-08-19T19:17:28.502Z,2.50
2022-08-19T19:19:55.571Z,2.08
2022-08-19T19:22:23.756Z,2.60
2022-08-19T19:24:51.844Z,2.50
2022-08-19T19:27:20.681Z,3.13
2022-08-19T19:29:51.955Z,3.85
2022-08-19T19:32:21.506Z,3.05
2022-08-19T19:34:48.533Z,3.42
2022-08-19T19:37:16.474Z,2.55
2022-08-19T19:39:46.929Z,4.68
2022-08-19T19:42:20.007Z,3.50
2022-08-19T19:44:50.560Z,5.43
2022-08-19T19:47:19.142Z,2.70
2022-08-19T19:50:12.753Z,2.78
2022-08-19T19:52:34.671Z,2.97
2022-08-19T19:55:01.703Z,4.20
2022-08-19T19:57:30.389Z,4.28
2022-08-19T19:59:57.598Z,3.85
2022-08-19T20:02:25.307Z,3.67
2022-08-19T20:04:54.090Z,4.55
2022-08-19T20:07:40.956Z,6.75
2022-08-19T20:10:08.377Z,4.10
2022-08-19T20:12:35.519Z,3.20
2022-08-19T20:15:03.616Z,4.00
2022-08-19T20:17:30.504Z,3.95
2022-08-19T20:19:58.083Z,4.18
2022-08-19T20:22:25.901Z,4.55
2022-08-19T20:24:55.878Z,3.10
2022-08-19T20:27:25.760Z,4.50
2022-08-19T20:29:53.401Z,5.38
2022-08-19T20:32:20.261Z,4.78
2022-08-19T20:34:49.189Z,3.47
2022-08-19T20:37:16.450Z,4.88
2022-08-19T20:39:43.507Z,4.72
2022-08-19T20:42:10.450Z,4.55
2022-08-19T20:44:37.982Z,4.82
2022-08-19T20:47:05.042Z,4.63
2022-08-19T20:49:32.961Z,3.97
2022-08-19T20:52:00.345Z,6.22
2022-08-19T20:54:27.629Z,3.97
2022-08-19T20:56:55.142Z,4.65
2022-08-19T20:59:23.052Z,3.83
2022-08-19T21:01:53.379Z,3.97
2022-08-19T21:04:21.524Z,3.88
2022-08-19T21:06:49.880Z,3.83
2022-08-19T21:09:17.104Z,4.25
2022-08-19T21:11:44.186Z,3.67
2022-08-19T21:14:11.057Z,5.10
2022-08-19T21:16:37.952Z,3.35
2022-08-19T21:19:04.988Z,4.40
2022-08-19T21:21:33.154Z,4.03
2022-08-19T21:24:00.111Z,3.47
2022-08-19T21:26:27.485Z,3.67
2022-08-19T21:28:54.384Z,5.07
2022-08-19T21:31:21.546Z,3.97
2022-08-19T21:33:48.463Z,4.70
2022-08-19T21:36:15.424Z,4.35
2022-08-19T21:38:42.315Z,5.80
2022-08-19T21:41:09.311Z,6.25
2022-08-19T21:43:37.652Z,5.68
2022-08-19T21:46:05.266Z,4.75
2022-08-19T21:48:32.900Z,3.45
2022-08-19T21:50:59.819Z,5.28
2022-08-19T21:53:31.499Z,2.85
2022-08-19T21:56:01.578Z,3.78
2022-08-19T21:58:30.205Z,4.13
2022-08-19T22:01:05.915Z,3.35
2022-08-19T22:06:00.014Z,2.83
2022-08-19T22:08:27.345Z,3.03
2022-08-19T22:10:54.820Z,4.40
2022-08-19T22:13:21.747Z,3.30
2022-08-19T22:15:52.032Z,4.07
2022-08-19T22:18:19.149Z,3.33
2022-08-19T22:20:46.288Z,3.35
2022-08-19T22:23:13.585Z,3.88
2022-08-19T22:25:46.066Z,3.03
2022-08-19T22:28:19.084Z,4.15
2022-08-19T22:30:55.072Z,4.88
2022-08-19T22:33:22.612Z,2.65
2022-08-19T22:35:52.557Z,4.22
2022-08-19T22:38:19.529Z,3.13
2022-08-19T22:40:48.460Z,3.70
2022-08-19T22:43:24.717Z,3.55
2022-08-19T22:45:53.639Z,2.28
2022-08-19T22:48:23.268Z,2.08
2022-08-19T22:51:10.156Z,2.05
2022-08-19T22:53:39.501Z,2.30
2022-08-19T22:56:13.068Z,2.38
2022-08-19T22:58:42.426Z,1.90
2022-08-19T23:01:11.245Z,3.55
2022-08-19T23:03:43.511Z,2.53
2022-08-19T23:06:10.855Z,2.72
2022-08-19T23:08:39.819Z,2.63
2022-08-19T23:11:06.975Z,1.85
2022-08-19T23:13:33.898Z,1.70
2022-08-19T23:16:00.790Z,2.20
2022-08-19T23:18:27.827Z,1.63
2022-08-19T23:20:54.917Z,2.60
2022-08-19T23:23:24.872Z,1.42
2022-08-19T23:25:54.295Z,1.45
2022-08-19T23:28:40.203Z,1.10
2022-08-19T23:31:07.645Z,1.40
2022-08-19T23:33:51.098Z,2.55
2022-08-19T23:36:19.512Z,1.50
2022-08-19T23:38:48.313Z,1.50
2022-08-19T23:41:16.791Z,1.60
2022-08-19T23:43:44.583Z,1.42
2022-08-19T23:46:14.724Z,1.73
2022-08-19T23:48:55.667Z,1.60
2022-08-19T23:51:22.905Z,2.35
2022-08-19T23:53:50.023Z,0.40
2022-08-19T23:56:16.940Z,1.08
2022-08-19T23:58:43.904Z,1.55
